createdAt,value
2019-01-05T00:02:03.000Z,70.70
2019-01-05T00:05:05.984Z,70.70
2019-01-05T00:07:45.975Z,70.80
2019-01-05T00:10:46.214Z,70.80
2019-01-05T00:13:38.885Z,70.80
2019-01-05T00:16:27.581Z,71.10
2019-01-05T00:19:14.459Z,71.00
2019-01-05T00:22:01.991Z,71.00
2019-01-05T00:24:58.985Z,71.10
2019-01-05T00:27:47.069Z,71.30
2019-01-05T00:30:33.543Z,71.30
2019-01-05T00:33:20.245Z,71.40
2019-01-05T00:36:22.128Z,71.60
2019-01-05T00:39:20.410Z,71.50
2019-01-05T00:42:24.966Z,71.60
2019-01-05T00:45:16.416Z,71.70
2019-01-05T00:48:09.239Z,71.70
2019-01-05T00:51:16.604Z,71.80
2019-01-05T00:54:08.333Z,71.80
2019-01-05T00:57:03.845Z,71.80
2019-01-05T00:59:52.242Z,72.00
2019-01-05T01:02:46.044Z,72.20
2019-01-05T01:05:36.817Z,72.30
2019-01-05T01:08:23.472Z,72.40
2019-01-05T01:11:21.264Z,72.50
2019-01-05T01:14:08.010Z,72.50
2019-01-05T01:16:54.648Z,72.60
2019-01-05T01:19:42.856Z,72.70
2019-01-05T01:22:29.876Z,72.70
2019-01-05T01:25:30.372Z,72.70
2019-01-05T01:28:17.980Z,72.80
2019-01-05T01:31:09.041Z,72.90
2019-01-05T01:33:56.378Z,72.80
2019-01-05T01:36:47.020Z,72.90
2019-01-05T01:39:35.896Z,73.00
2019-01-05T01:42:23.723Z,73.00
2019-01-05T01:45:17.645Z,73.10
2019-01-05T01:48:10.169Z,73.10
2019-01-05T01:50:57.792Z,73.20
2019-01-05T01:53:45.039Z,73.10
2019-01-05T01:56:34.805Z,73.20
2019-01-05T01:59:26.937Z,73.20
2019-01-05T02:02:16.776Z,73.20
2019-01-05T02:05:08.165Z,73.40
2019-01-05T02:08:13.643Z,73.40
2019-01-05T02:11:13.983Z,73.50
2019-01-05T02:14:16.756Z,73.60
2019-01-05T02:17:20.696Z,73.60
2019-01-05T02:20:27.400Z,73.70
2019-01-05T02:24:07.463Z,73.80
2019-01-05T02:27:30.936Z,73.80
2019-01-05T02:31:00.069Z,73.90
2019-01-05T02:34:40.217Z,74.00
2019-01-05T02:38:11.674Z,74.10
2019-01-05T02:41:26.887Z,74.10
2019-01-05T02:45:04.858Z,74.20
2019-01-05T02:48:51.003Z,74.20
2019-01-05T02:52:18.723Z,74.30
2019-01-05T02:56:04.597Z,74.40
2019-01-05T02:59:45.304Z,74.40
2019-01-05T03:03:16.213Z,74.50
2019-01-05T03:06:53.372Z,74.80
2019-01-05T03:10:35.341Z,74.60
2019-01-05T03:14:10.692Z,74.60
2019-01-05T03:17:34.470Z,74.90
2019-01-05T03:21:12.460Z,75.00
2019-01-05T03:25:04.514Z,75.00
2019-01-05T03:28:50.340Z,75.00
2019-01-05T03:32:45.246Z,75.10
2019-01-05T03:36:21.857Z,75.10
2019-01-05T03:40:04.321Z,75.20
2019-01-05T03:43:30.753Z,75.10
2019-01-05T03:47:04.396Z,75.30
2019-01-05T03:50:39.439Z,75.40
2019-01-05T03:53:59.885Z,75.50
2019-01-05T03:57:17.812Z,75.50
2019-01-05T04:00:35.336Z,75.50
2019-01-05T04:04:27.463Z,75.60
2019-01-05T04:08:02.314Z,75.70
2019-01-05T04:11:38.279Z,75.70
2019-01-05T04:14:57.413Z,75.70
2019-01-05T04:18:18.363Z,75.90
2019-01-05T04:21:46.485Z,75.60
2019-01-05T04:25:20.430Z,76.00
2019-01-05T04:28:44.970Z,76.00
2019-01-05T04:31:56.531Z,76.00
2019-01-05T04:35:13.942Z,76.10
2019-01-05T04:38:46.075Z,76.00
2019-01-05T04:42:02.266Z,76.00
2019-01-05T04:45:58.432Z,76.20
2019-01-05T04:49:03.316Z,76.20
2019-01-05T04:52:34.937Z,76.20
2019-01-05T04:56:10.844Z,76.10
2019-01-05T04:59:34.992Z,76.10
2019-01-05T05:03:28.293Z,76.30
2019-01-05T05:07:10.564Z,76.10
2019-01-05T05:10:38.981Z,76.30
2019-01-05T05:14:01.829Z,76.30
2019-01-05T05:17:46.434Z,76.40
2019-01-05T05:21:17.925Z,76.40
2019-01-05T05:25:01.236Z,76.40
2019-01-05T05:28:24.769Z,76.40
2019-01-05T05:32:13.254Z,76.40
2019-01-05T05:35:26.754Z,76.40
2019-01-05T05:38:57.451Z,75.90
2019-01-05T05:42:31.073Z,76.60
2019-01-05T05:46:07.245Z,76.40
2019-01-05T05:49:42.493Z,76.50
2019-01-05T05:53:10.474Z,76.50
2019-01-05T05:56:35.703Z,76.40
2019-01-05T06:00:02.315Z,76.70
2019-01-05T06:03:51.849Z,76.70
2019-01-05T06:07:08.864Z,76.70
2019-01-05T06:10:39.619Z,76.80
2019-01-05T06:14:16.468Z,76.80
2019-01-05T06:17:43.595Z,76.80
2019-01-05T06:21:08.125Z,76.80
2019-01-05T06:24:42.152Z,76.70
2019-01-05T06:28:38.495Z,76.90
2019-01-05T06:32:12.270Z,77.00
2019-01-05T06:35:44.130Z,77.00
2019-01-05T06:39:18.816Z,77.00
2019-01-05T06:42:42.785Z,77.10
2019-01-05T06:46:07.663Z,77.00
2019-01-05T06:50:05.154Z,77.10
2019-01-05T06:53:32.034Z,77.40
2019-01-05T06:57:31.672Z,77.40
2019-01-05T07:01:13.455Z,77.50
2019-01-05T07:04:36.112Z,77.60
2019-01-05T07:08:00.482Z,77.60
2019-01-05T07:11:30.113Z,77.80
2019-01-05T07:15:02.712Z,77.70
2019-01-05T07:18:39.700Z,77.80
2019-01-05T07:22:21.883Z,77.70
2019-01-05T07:26:04.977Z,77.70
2019-01-05T07:29:36.001Z,77.80
2019-01-05T07:33:19.093Z,78.00
2019-01-05T07:36:46.904Z,78.00
2019-01-05T07:40:19.809Z,78.10
2019-01-05T07:43:36.065Z,78.20
2019-01-05T07:47:15.368Z,78.20
2019-01-05T07:51:00.405Z,78.40
2019-01-05T07:54:27.353Z,79.30
2019-01-05T07:58:23.249Z,78.40
2019-01-05T08:01:54.381Z,78.40
2019-01-05T08:05:22.021Z,78.40
2019-01-05T08:09:01.323Z,78.40
2019-01-05T08:12:39.464Z,78.40
2019-01-05T08:15:52.730Z,78.50
2019-01-05T08:19:29.044Z,78.50
2019-01-05T08:23:00.566Z,78.60
2019-01-05T08:26:25.816Z,78.50
2019-01-05T08:30:09.608Z,78.50
2019-01-05T08:33:33.603Z,78.60
2019-01-05T08:37:03.739Z,78.50
2019-01-05T08:40:30.048Z,78.50
2019-01-05T08:44:00.009Z,78.40
2019-01-05T08:47:27.241Z,78.40
2019-01-05T08:50:57.623Z,78.80
2019-01-05T08:54:19.161Z,78.60
2019-01-05T08:57:53.106Z,78.50
2019-01-05T09:01:46.852Z,78.50
2019-01-05T09:05:22.837Z,78.40
2019-01-05T09:08:22.352Z,78.80
2019-01-05T09:12:02.295Z,78.60
2019-01-05T09:15:31.241Z,78.50
2019-01-05T09:19:01.675Z,78.40
2019-01-05T09:22:24.122Z,78.40
2019-01-05T09:25:46.178Z,78.30
2019-01-05T09:28:58.704Z,78.20
2019-01-05T09:32:22.161Z,78.20
2019-01-05T09:36:27.077Z,78.20
2019-01-05T09:40:11.909Z,78.00
2019-01-05T09:43:34.164Z,78.10
2019-01-05T09:47:17.479Z,78.00
2019-01-05T09:51:03.474Z,78.10
2019-01-05T09:54:47.252Z,78.00
2019-01-05T09:58:25.027Z,78.00
2019-01-05T10:02:11.205Z,78.00
2019-01-05T10:05:20.125Z,77.90
2019-01-05T10:09:05.913Z,77.80
2019-01-05T10:12:43.739Z,78.00
2019-01-05T10:16:27.744Z,77.90
2019-01-05T10:19:58.464Z,77.70
2019-01-05T10:23:10.166Z,77.80
2019-01-05T10:26:53.821Z,77.90
2019-01-05T10:30:23.826Z,77.80
2019-01-05T10:33:47.627Z,77.80
2019-01-05T10:37:22.943Z,77.90
2019-01-05T10:40:52.229Z,77.90
2019-01-05T10:43:58.933Z,77.70
2019-01-05T10:47:28.544Z,77.70
2019-01-05T10:51:16.345Z,77.70
2019-01-05T10:54:53.548Z,77.70
2019-01-05T10:58:18.412Z,77.60
2019-01-05T11:01:59.939Z,77.60
2019-01-05T11:05:23.301Z,77.50
2019-01-05T11:08:36.646Z,77.70
2019-01-05T11:11:58.620Z,77.50
2019-01-05T11:15:24.664Z,77.50
2019-01-05T11:18:54.352Z,77.50
2019-01-05T11:22:29.976Z,77.60
2019-01-05T11:25:46.178Z,77.50
2019-01-05T11:29:19.943Z,77.60
2019-01-05T11:32:44.073Z,78.00
2019-01-05T11:36:23.432Z,78.20
2019-01-05T11:39:54.825Z,78.40
2019-01-05T11:43:28.710Z,78.60
2019-01-05T11:47:05.995Z,78.90
2019-01-05T11:50:39.617Z,78.70
2019-01-05T11:54:08.147Z,78.70
2019-01-05T11:57:26.308Z,78.30
2019-01-05T12:01:08.106Z,78.80
2019-01-05T12:04:51.029Z,78.70
2019-01-05T12:08:24.526Z,78.80
2019-01-05T12:12:06.439Z,78.70
2019-01-05T12:15:22.905Z,78.30
2019-01-05T12:19:07.761Z,78.20
2019-01-05T12:22:51.480Z,78.40
2019-01-05T12:26:43.086Z,78.50
2019-01-05T12:30:20.317Z,78.50
2019-01-05T12:33:56.835Z,78.40
2019-01-05T12:37:26.536Z,78.30
2019-01-05T12:40:53.347Z,78.10
2019-01-05T12:44:25.934Z,78.10
2019-01-05T12:47:33.805Z,78.10
2019-01-05T12:51:29.680Z,78.20
2019-01-05T12:55:06.336Z,78.10
2019-01-05T12:58:33.334Z,77.80
2019-01-05T13:01:47.289Z,77.90
2019-01-05T13:05:22.157Z,78.00
2019-01-05T13:08:57.552Z,77.90
2019-01-05T13:12:32.030Z,78.00
2019-01-05T13:15:48.605Z,78.00
2019-01-05T13:19:03.185Z,78.20
2019-01-05T13:22:36.793Z,77.90
2019-01-05T13:26:07.235Z,78.20
2019-01-05T13:29:52.952Z,78.10
2019-01-05T13:33:15.255Z,77.90
2019-01-05T13:36:51.944Z,78.00
2019-01-05T13:40:13.639Z,77.80
2019-01-05T13:43:44.076Z,78.00
2019-01-05T13:47:07.629Z,77.50
2019-01-05T13:50:40.125Z,77.70
2019-01-05T13:53:43.854Z,77.60
2019-01-05T13:56:38.526Z,77.50
2019-01-05T13:59:24.919Z,78.30
2019-01-05T14:02:18.890Z,77.40
2019-01-05T14:05:05.569Z,77.20
2019-01-05T14:07:50.465Z,77.40
2019-01-05T14:10:45.712Z,77.50
2019-01-05T14:13:32.468Z,77.20
2019-01-05T14:16:32.722Z,77.10
2019-01-05T14:19:32.618Z,77.00
2019-01-05T14:22:35.572Z,76.90
2019-01-05T14:25:31.821Z,76.90
2019-01-05T14:28:18.176Z,76.90
2019-01-05T14:31:06.233Z,76.80
2019-01-05T14:33:58.061Z,76.90
2019-01-05T14:36:54.604Z,76.90
2019-01-05T14:39:41.208Z,76.90
2019-01-05T14:42:28.705Z,76.80
2019-01-05T14:45:16.711Z,76.90
2019-01-05T14:48:05.388Z,76.90
2019-01-05T14:50:59.505Z,76.80
2019-01-05T14:53:48.830Z,77.70
2019-01-05T14:56:38.838Z,76.90
2019-01-05T14:59:27.460Z,76.80
2019-01-05T15:02:15.925Z,76.90
2019-01-05T15:05:07.011Z,76.80
2019-01-05T15:07:58.030Z,76.70
2019-01-05T15:10:49.428Z,76.70
2019-01-05T15:13:43.288Z,76.70
2019-01-05T15:16:49.477Z,76.70
2019-01-05T15:19:29.732Z,76.60
2019-01-05T15:22:16.476Z,76.70
2019-01-05T15:25:02.782Z,76.60
2019-01-05T15:28:02.856Z,76.60
2019-01-05T15:30:49.377Z,76.60
2019-01-05T15:33:49.425Z,76.60
2019-01-05T15:36:34.849Z,76.70
2019-01-05T15:39:23.918Z,76.60
2019-01-05T15:42:30.164Z,76.50
2019-01-05T15:45:24.049Z,76.60
2019-01-05T15:48:21.236Z,76.50
2019-01-05T15:51:12.388Z,76.50
2019-01-05T15:53:58.949Z,76.50
2019-01-05T15:56:49.912Z,76.50
2019-01-05T15:59:38.049Z,76.40
2019-01-05T16:02:24.797Z,76.40
2019-01-05T16:05:11.317Z,76.50
2019-01-05T16:08:08.767Z,76.40
2019-01-05T16:10:56.595Z,76.30
2019-01-05T16:13:44.928Z,76.40
2019-01-05T16:16:44.725Z,76.40
2019-01-05T16:19:33.480Z,76.40
2019-01-05T16:22:22.662Z,76.40
2019-01-05T16:25:09.495Z,76.40
2019-01-05T16:27:57.625Z,76.30
2019-01-05T16:30:48.746Z,76.40
2019-01-05T16:33:35.245Z,76.50
2019-01-05T16:36:17.521Z,76.70
2019-01-05T16:39:04.153Z,77.10
2019-01-05T16:42:01.153Z,77.40
2019-01-05T16:44:48.426Z,77.40
2019-01-05T16:47:36.620Z,77.30
2019-01-05T16:50:25.123Z,77.30
2019-01-05T16:53:12.124Z,77.30
2019-01-05T16:56:06.074Z,77.30
2019-01-05T16:58:54.273Z,77.20
2019-01-05T17:01:48.903Z,77.60
2019-01-05T17:04:44.513Z,77.80
2019-01-05T17:07:31.262Z,77.90
2019-01-05T17:10:25.397Z,77.90
2019-01-05T17:13:16.314Z,78.10
2019-01-05T17:16:13.216Z,78.10
2019-01-05T17:19:07.133Z,78.20
2019-01-05T17:21:53.617Z,78.10
2019-01-05T17:24:40.453Z,78.10
2019-01-05T17:27:28.606Z,78.30
2019-01-05T17:30:25.737Z,78.40
2019-01-05T17:33:17.859Z,78.20
2019-01-05T17:36:11.845Z,78.30
2019-01-05T17:39:00.016Z,78.60
2019-01-05T17:41:46.795Z,78.50
2019-01-05T17:44:28.801Z,78.20
2019-01-05T17:47:28.658Z,78.20
2019-01-05T17:50:15.247Z,78.30
2019-01-05T17:53:01.759Z,78.50
2019-01-05T17:55:42.820Z,78.40
2019-01-05T17:58:39.704Z,78.40
2019-01-05T18:01:26.705Z,78.40
2019-01-05T18:04:23.633Z,78.40
2019-01-05T18:07:10.444Z,78.50
2019-01-05T18:09:57.205Z,78.30
2019-01-05T18:12:51.547Z,78.30
2019-01-05T18:15:40.829Z,78.40
2019-01-05T18:18:29.056Z,78.10
2019-01-05T18:21:16.094Z,78.30
2019-01-05T18:24:06.740Z,78.40
2019-01-05T18:27:06.920Z,78.60
2019-01-05T18:29:53.507Z,78.50
2019-01-05T18:32:49.175Z,78.80
2019-01-05T18:35:35.675Z,78.40
2019-01-05T18:38:22.775Z,78.40
2019-01-05T18:41:11.059Z,78.40
2019-01-05T18:43:57.452Z,78.40
2019-01-05T18:46:44.040Z,78.30
2019-01-05T18:49:44.056Z,78.30
2019-01-05T18:52:30.553Z,78.20
2019-01-05T18:55:27.328Z,78.10
2019-01-05T18:58:17.063Z,78.10
2019-01-05T19:01:03.596Z,77.90
2019-01-05T19:04:03.757Z,77.80
2019-01-05T19:07:07.120Z,77.60
2019-01-05T19:09:53.750Z,77.50
2019-01-05T19:12:51.057Z,77.40
2019-01-05T19:15:40.766Z,77.20
2019-01-05T19:18:27.125Z,77.10
2019-01-05T19:21:21.000Z,76.80
2019-01-05T19:24:07.492Z,76.70
2019-01-05T19:26:58.296Z,76.50
2019-01-05T19:29:52.097Z,76.40
2019-01-05T19:32:40.459Z,76.30
2019-01-05T19:35:27.616Z,76.20
2019-01-05T19:38:24.904Z,76.10
2019-01-05T19:41:16.172Z,76.10
2019-01-05T19:44:02.811Z,76.30
2019-01-05T19:46:49.673Z,76.60
2019-01-05T19:49:40.942Z,76.80
2019-01-05T19:52:27.479Z,76.90
2019-01-05T19:55:13.982Z,77.10
2019-01-05T19:58:05.037Z,77.30
2019-01-05T20:01:11.655Z,77.50
2019-01-05T20:03:58.058Z,77.50
2019-01-05T20:06:58.689Z,77.80
2019-01-05T20:09:47.101Z,78.00
2019-01-05T20:12:37.041Z,78.20
2019-01-05T20:15:23.785Z,78.30
2019-01-05T20:18:20.705Z,78.40
2019-01-05T20:21:04.032Z,78.50
2019-01-05T20:23:52.676Z,78.60
2019-01-05T20:26:39.327Z,78.80
2019-01-05T20:29:25.768Z,79.00
2019-01-05T20:32:12.494Z,79.10
2019-01-05T20:34:55.333Z,79.10
2019-01-05T20:37:42.085Z,79.10
2019-01-05T20:40:41.981Z,79.20
2019-01-05T20:43:33.380Z,79.30
2019-01-05T20:46:21.894Z,79.50
2019-01-05T20:49:08.500Z,79.40
2019-01-05T20:51:55.533Z,79.50
2019-01-05T20:54:46.396Z,79.50
2019-01-05T20:57:33.206Z,79.60
2019-01-05T21:00:20.760Z,79.70
2019-01-05T21:03:06.977Z,79.80
2019-01-05T21:06:02.369Z,79.80
2019-01-05T21:08:50.798Z,80.00
2019-01-05T21:11:39.205Z,79.80
2019-01-05T21:14:25.846Z,80.70
2019-01-05T21:17:12.551Z,79.90
2019-01-05T21:20:03.490Z,79.90
2019-01-05T21:23:03.874Z,80.00
2019-01-05T21:25:55.688Z,80.00
2019-01-05T21:28:46.917Z,80.10
2019-01-05T21:31:41.024Z,80.10
2019-01-05T21:34:27.796Z,80.20
2019-01-05T21:37:31.428Z,80.30
2019-01-05T21:40:18.108Z,80.30
2019-01-05T21:43:05.313Z,80.40
2019-01-05T21:45:51.873Z,80.30
2019-01-05T21:48:48.857Z,80.50
2019-01-05T21:51:55.446Z,80.40
2019-01-05T21:54:42.041Z,80.40
2019-01-05T21:57:32.334Z,80.50
2019-01-05T22:00:23.477Z,80.50
2019-01-05T22:03:24.752Z,80.50
2019-01-05T22:06:11.221Z,80.60
2019-01-05T22:09:15.203Z,80.50
2019-01-05T22:11:57.849Z,80.60
2019-01-05T22:14:44.488Z,80.70
2019-01-05T22:17:44.079Z,80.60
2019-01-05T22:20:33.320Z,80.80
2019-01-05T22:23:21.457Z,80.70
2019-01-05T22:26:08.085Z,80.80
2019-01-05T22:29:05.197Z,80.80
2019-01-05T22:31:59.083Z,80.90
2019-01-05T22:35:05.333Z,80.90
2019-01-05T22:37:52.461Z,81.00
2019-01-05T22:40:31.845Z,81.00
2019-01-05T22:43:38.268Z,81.10
2019-01-05T22:46:32.245Z,81.00
2019-01-05T22:49:38.655Z,81.00
2019-01-05T22:52:20.171Z,81.10
2019-01-05T22:55:14.466Z,81.20
2019-01-05T22:58:14.569Z,81.10
2019-01-05T23:00:55.354Z,81.30
2019-01-05T23:03:43.843Z,81.40
2019-01-05T23:06:31.698Z,81.20
2019-01-05T23:09:25.711Z,81.50
2019-01-05T23:12:17.096Z,81.30
2019-01-05T23:15:17.476Z,81.40
2019-01-05T23:18:01.869Z,81.30
2019-01-05T23:20:51.683Z,81.40
2019-01-05T23:23:42.353Z,81.40
2019-01-05T23:26:33.537Z,81.30
2019-01-05T23:29:39.633Z,81.50
2019-01-05T23:32:28.164Z,81.40
2019-01-05T23:35:17.816Z,81.50
2019-01-05T23:38:04.304Z,81.50
2019-01-05T23:40:50.502Z,81.50
2019-01-05T23:43:38.678Z,81.50
2019-01-05T23:46:20.646Z,81.40
2019-01-05T23:49:07.333Z,81.60
2019-01-05T23:51:53.132Z,81.50
2019-01-05T23:54:40.094Z,81.60
2019-01-05T23:57:26.671Z,81.50
